Porter Ranch, California
Current Conditions -  °F | °C
As of 8:51 PM on Wednesday 22 Oct 2014 (Local Time) from KVNY Reporting Station
Clear Clear  
Wind Chill: 72°   Ceiling: Unl
Heat Index: 72°   Visibility: 10mi
Dew Point: 49°   Wind: 0mph
Humidity: 44%   Direction: NA
Pressure: 29.95"   Gusts: NA
Location:  34.2807°N, 118.556°W
Report Text: KVNY 230351Z 00000KT 10SM CLR 22/09 A2995 RMK AO2 SLP135 T02220094
Loading
Personal Weather Stations






























Interactive Weather Map
Tropical Storm Tracking
New forecast layout! Learn more

10-Day Weather Forecast

Advertisements
Track Severe Weather on mobile